Terminal Aerodrome Forecast
Issued by NWS Cleveland, OH

Home | Current Version | Previous Version | Graphics & Text | Print | Product List | Glossary On
Versions: 1 2 3 4 5 6 7 8 9 10 11 12 13 14 15 16 17 18 19 20 21
000
FTUS41 KCLE 181400 AAA
TAFYNG
TAF AMD
KYNG 181438Z 1815/1912 31012KT P6SM -RA BKN015 OVC025
      TEMPO 1815/1817 31012G20KT 5SM -SHRA BKN008
     FM181700 30012G20KT P6SM VCSH OVC022
      TEMPO 1817/1821 6SM -SHRA OVC015
     FM190000 30010KT P6SM OVC025
     FM190400 30008KT P6SM OVC015=

USA.gov is the U.S. government's official web portal to all federal, state and local government web resources and services.